Time;durP1;ratioP1;P1;durP2;ratioP2;P2;SDS_P1;SDS_P2;PMS_P1;PMS_P2;Temp;Humidity;BMP_temperature;BMP_pressure;BME280_temperature;BME280_humidity;BME280_pressure;Samples;Min_cycle;Max_cycle;Signal;HPM_P1;HPM_P2
2022/05/19 00:01:26;;;;;;;4.88;2.67;;;17.50;57.20;;;;;;5076014;28;20533;-63
2022/05/19 00:03:52;;;;;;;3.40;2.47;;;17.40;57.00;;;;;;5070596;28;20079;-62
2022/05/19 00:06:18;;;;;;;5.05;2.42;;;17.40;57.10;;;;;;5072697;28;20032;-62
2022/05/19 00:08:44;;;;;;;5.60;2.63;;;17.30;57.20;;;;;;5072751;28;20233;-62
2022/05/19 00:11:16;;;;;;;2.72;2.33;;;17.30;57.40;;;;;;5068301;28;20033;-63
2022/05/19 00:13:42;;;;;;;4.00;2.45;;;17.30;57.80;;;;;;5068857;28;20021;-62
2022/05/19 00:16:08;;;;;;;5.28;2.42;;;17.20;57.60;;;;;;5076408;28;20048;-63
2022/05/19 00:18:35;;;;;;;3.92;2.30;;;17.20;57.80;;;;;;5070981;28;20035;-63
2022/05/19 00:21:02;;;;;;;6.50;2.75;;;17.20;57.90;;;;;;5068842;28;20029;-63
2022/05/19 00:23:28;;;;;;;4.15;2.75;;;17.10;57.80;;;;;;5072503;28;20021;-62
2022/05/19 00:25:54;;;;;;;4.38;3.03;;;17.10;58.00;;;;;;5076678;28;20028;-63
2022/05/19 00:28:20;;;;;;;7.25;2.83;;;17.10;57.90;;;;;;5069096;28;20032;-63
2022/05/19 00:30:46;;;;;;;5.25;2.45;;;17.10;57.90;;;;;;5055839;28;20025;-63
2022/05/19 00:33:12;;;;;;;4.50;2.55;;;17.00;58.00;;;;;;5076109;28;20024;-63
2022/05/19 00:35:39;;;;;;;5.13;2.80;;;17.00;58.10;;;;;;5062698;28;20090;-63
2022/05/19 00:38:05;;;;;;;4.53;2.88;;;16.90;58.20;;;;;;5076938;28;20095;-62
2022/05/19 00:40:32;;;;;;;5.82;2.55;;;16.90;58.30;;;;;;5052504;28;20404;-62
2022/05/19 00:42:58;;;;;;;4.03;2.75;;;16.90;58.40;;;;;;5053440;28;20032;-62
2022/05/19 00:45:33;;;;;;;4.30;2.90;;;16.80;58.40;;;;;;5069838;28;20014;-63
2022/05/19 00:48:08;;;;;;;3.92;2.65;;;16.80;58.50;;;;;;5074010;28;20060;-63
2022/05/19 00:51:06;;;;;;;4.68;2.40;;;16.70;58.70;;;;;;5065036;28;20084;-62
2022/05/19 00:53:46;;;;;;;6.40;2.60;;;16.70;59.10;;;;;;5074781;28;20056;-62
2022/05/19 00:56:27;;;;;;;5.55;2.80;;;16.60;58.50;;;;;;5068180;28;20040;-63
2022/05/19 00:59:06;;;;;;;4.35;2.55;;;16.50;59.20;;;;;;5063558;28;20033;-63
2022/05/19 01:01:39;;;;;;;3.40;2.42;;;16.50;58.60;;;;;;5064611;28;20033;-63
2022/05/19 01:04:25;;;;;;;5.10;2.55;;;16.40;58.90;;;;;;5050117;28;20024;-63
2022/05/19 01:06:56;;;;;;;4.03;2.28;;;16.40;59.50;;;;;;5071030;28;20036;-63
2022/05/19 01:09:22;;;;;;;3.33;2.33;;;16.40;58.80;;;;;;5071376;28;20033;-62
2022/05/19 01:11:54;;;;;;;2.45;2.25;;;16.30;58.50;;;;;;5074736;28;20033;-62
2022/05/19 01:14:19;;;;;;;9.75;2.67;;;16.30;58.70;;;;;;5069430;28;20035;-63
2022/05/19 01:16:45;;;;;;;3.72;2.50;;;16.30;58.70;;;;;;5076310;28;20072;-62
2022/05/19 01:19:23;;;;;;;5.82;2.83;;;16.20;58.90;;;;;;5049070;28;20024;-63
2022/05/19 01:21:51;;;;;;;3.03;2.30;;;16.20;59.40;;;;;;5070151;28;20033;-62
2022/05/19 01:24:33;;;;;;;4.70;2.60;;;16.10;59.00;;;;;;5061325;28;20036;-63
2022/05/19 01:26:59;;;;;;;5.40;2.25;;;16.10;59.80;;;;;;5071645;28;20028;-62
2022/05/19 01:29:28;;;;;;;3.40;2.55;;;16.10;59.00;;;;;;5068538;28;20036;-62
2022/05/19 01:32:00;;;;;;;2.60;2.38;;;16.10;59.20;;;;;;5071025;28;20036;-62
2022/05/19 01:34:32;;;;;;;3.25;2.40;;;16.00;59.40;;;;;;5060610;28;20009;-63
2022/05/19 01:36:58;;;;;;;2.72;2.40;;;16.00;59.30;;;;;;5068415;28;20029;-63
2022/05/19 01:39:28;;;;;;;3.58;2.38;;;15.90;59.10;;;;;;5066892;28;20096;-63
2022/05/19 01:42:13;;;;;;;4.90;2.53;;;15.90;59.30;;;;;;5062964;28;20029;-62
2022/05/19 01:44:38;;;;;;;;;;;15.90;60.40;;;;;;5069391;28;20052;-62
2022/05/19 01:47:30;;;;;;;4.55;2.08;;;15.90;59.20;;;;;;5068089;28;19908;-63
2022/05/19 01:50:22;;;;;;;3.58;2.40;;;15.80;59.00;;;;;;5058158;28;20376;-62
2022/05/19 01:53:06;;;;;;;9.20;2.30;;;15.80;59.60;;;;;;5088106;28;20048;-62
2022/05/19 01:55:32;;;;;;;;;;;15.70;59.60;;;;;;5096264;28;20083;-62
2022/05/19 01:58:28;;;;;;;3.05;2.25;;;15.70;58.80;;;;;;5089794;28;22533;-62
2022/05/19 02:00:58;;;;;;;3.58;2.30;;;15.70;59.50;;;;;;5089574;28;20032;-62
2022/05/19 02:03:39;;;;;;;3.00;2.30;;;15.60;59.00;;;;;;5089160;28;20107;-62
2022/05/19 02:06:04;;;;;;;3.33;2.35;;;15.60;59.70;;;;;;5080575;28;20092;-62
2022/05/19 02:08:53;;;;;;;4.13;2.30;;;15.50;59.30;;;;;;5086612;28;20028;-62
2022/05/19 02:11:30;;;;;;;4.30;2.35;;;15.50;60.40;;;;;;5082553;28;20039;-62
2022/05/19 02:14:00;;;;;;;2.50;2.30;;;15.50;60.10;;;;;;5092181;28;20050;-62
2022/05/19 02:16:30;;;;;;;4.03;2.67;;;15.40;59.80;;;;;;5083842;28;20021;-62
2022/05/19 02:18:56;;;;;;;3.42;2.78;;;15.40;59.80;;;;;;5096557;28;20028;-64
2022/05/19 02:21:22;;;;;;;4.63;2.60;;;15.40;59.70;;;;;;5090726;28;20047;-64
2022/05/19 02:23:49;;;;;;;4.82;2.75;;;15.30;59.70;;;;;;5087306;28;20051;-64
2022/05/19 02:26:14;;;;;;;5.68;2.72;;;15.30;59.80;;;;;;5088151;28;20110;-63
2022/05/19 02:28:56;;;;;;;4.30;2.85;;;15.20;59.60;;;;;;5067751;28;20109;-63
2022/05/19 02:31:22;;;;;;;3.47;2.58;;;15.20;60.70;;;;;;5085013;28;20071;-63
2022/05/19 02:33:48;;;;;;;7.00;2.60;;;15.20;59.80;;;;;;5085585;28;20050;-63
2022/05/19 02:36:14;;;;;;;3.67;2.65;;;15.10;59.90;;;;;;5092557;28;20028;-63
2022/05/19 02:38:40;;;;;;;5.65;2.70;;;15.10;60.00;;;;;;5090373;28;20028;-63
2022/05/19 02:41:06;;;;;;;8.13;2.63;;;15.10;60.10;;;;;;5089660;28;20066;-63
2022/05/19 02:43:32;;;;;;;2.53;2.33;;;15.10;60.10;;;;;;5097625;28;20027;-63
2022/05/19 02:45:57;;;;;;;6.32;2.78;;;15.00;60.00;;;;;;5086034;28;20029;-63
2022/05/19 02:48:23;;;;;;;3.25;2.78;;;15.00;60.10;;;;;;5085790;28;20024;-63
2022/05/19 02:50:50;;;;;;;5.43;2.42;;;15.00;60.30;;;;;;5090312;28;20052;-63
2022/05/19 02:53:18;;;;;;;5.90;2.47;;;14.90;60.40;;;;;;5091153;28;20120;-63
2022/05/19 02:55:44;;;;;;;5.57;2.60;;;14.90;60.40;;;;;;5090052;28;20052;-63
2022/05/19 02:58:11;;;;;;;3.42;2.60;;;14.90;60.50;;;;;;5090562;28;20020;-63
2022/05/19 03:00:40;;;;;;;3.50;2.70;;;14.80;60.50;;;;;;5090689;28;20032;-63
2022/05/19 03:03:06;;;;;;;3.55;2.30;;;14.80;60.60;;;;;;5091271;28;20027;-63
2022/05/19 03:05:33;;;;;;;2.92;2.38;;;14.80;60.70;;;;;;5081030;28;20029;-63
2022/05/19 03:08:00;;;;;;;3.47;2.90;;;14.70;60.90;;;;;;5087462;28;20024;-63
2022/05/19 03:10:26;;;;;;;3.67;2.55;;;14.70;60.90;;;;;;5080251;28;20508;-63
2022/05/19 03:12:54;;;;;;;4.22;2.63;;;14.70;60.90;;;;;;5084029;28;20487;-63
2022/05/19 03:15:20;;;;;;;3.63;2.50;;;14.70;61.20;;;;;;5086688;28;20032;-63
2022/05/19 03:17:46;;;;;;;3.17;2.75;;;14.70;61.10;;;;;;5089145;28;20032;-63
2022/05/19 03:20:12;;;;;;;17.60;3.00;;;14.60;61.10;;;;;;5088194;28;20029;-63
2022/05/19 03:22:38;;;;;;;4.10;2.90;;;14.60;61.10;;;;;;5083694;28;20058;-62
2022/05/19 03:25:05;;;;;;;3.30;2.58;;;14.60;61.20;;;;;;5087056;28;20012;-64
2022/05/19 03:27:32;;;;;;;6.30;2.67;;;14.60;61.20;;;;;;5088990;28;20025;-63
2022/05/19 03:29:57;;;;;;;3.40;2.58;;;14.50;61.20;;;;;;5077821;28;20039;-64
2022/05/19 03:32:23;;;;;;;5.43;2.70;;;14.60;61.30;;;;;;5091223;28;20104;-64
2022/05/19 03:34:48;;;;;;;7.10;3.00;;;14.50;61.20;;;;;;5091591;28;20039;-62
2022/05/19 03:37:14;;;;;;;3.88;2.88;;;14.50;61.20;;;;;;5085298;28;20024;-63
2022/05/19 03:39:40;;;;;;;4.13;2.83;;;14.50;61.20;;;;;;5091697;28;20507;-63
2022/05/19 03:42:07;;;;;;;7.03;2.75;;;14.50;61.30;;;;;;5095423;28;20025;-64
2022/05/19 03:44:35;;;;;;;4.28;2.40;;;14.40;61.40;;;;;;5086290;28;20033;-62
2022/05/19 03:47:01;;;;;;;5.55;2.50;;;14.40;61.30;;;;;;5090896;28;20016;-63
2022/05/19 03:49:27;;;;;;;5.63;2.60;;;14.40;61.40;;;;;;5087670;28;20048;-64
2022/05/19 03:51:54;;;;;;;4.90;2.50;;;14.40;61.50;;;;;;5092693;28;20044;-62
2022/05/19 03:54:20;;;;;;;5.00;2.42;;;14.30;61.70;;;;;;5083046;28;20016;-63
2022/05/19 03:56:45;;;;;;;4.45;2.45;;;14.30;61.80;;;;;;5090886;28;20035;-64
2022/05/19 03:59:11;;;;;;;4.70;2.97;;;14.30;61.90;;;;;;5089650;28;20120;-62
2022/05/19 04:01:37;;;;;;;4.70;2.47;;;14.30;61.90;;;;;;5091650;28;20039;-63
2022/05/19 04:04:03;;;;;;;3.30;2.65;;;14.30;61.80;;;;;;5090461;28;20067;-63
2022/05/19 04:06:29;;;;;;;5.00;2.42;;;14.30;62.00;;;;;;5092150;28;20041;-62
2022/05/19 04:08:55;;;;;;;4.53;2.47;;;14.30;62.10;;;;;;5088865;28;20107;-62
2022/05/19 04:11:20;;;;;;;4.20;2.80;;;14.30;62.10;;;;;;5087165;28;20074;-62
2022/05/19 04:13:46;;;;;;;3.15;2.58;;;14.30;62.20;;;;;;5089860;28;20064;-62
2022/05/19 04:16:12;;;;;;;5.43;2.97;;;14.30;62.40;;;;;;5077548;28;20024;-62
2022/05/19 04:18:38;;;;;;;3.67;2.55;;;14.30;62.40;;;;;;5093576;28;20036;-62
2022/05/19 04:21:05;;;;;;;3.03;2.28;;;14.30;62.40;;;;;;5091257;28;20028;-62
2022/05/19 04:23:31;;;;;;;5.22;2.60;;;14.40;62.60;;;;;;5080093;28;20055;-62
2022/05/19 04:25:56;;;;;;;3.78;2.35;;;14.40;62.50;;;;;;5091218;28;20027;-63
2022/05/19 04:28:23;;;;;;;2.53;2.28;;;14.40;62.70;;;;;;5086505;28;20036;-62
2022/05/19 04:30:48;;;;;;;5.28;2.92;;;14.50;62.80;;;;;;5084405;28;20029;-62
2022/05/19 04:33:14;;;;;;;6.00;2.63;;;14.50;62.80;;;;;;5087509;28;20037;-63
2022/05/19 04:35:40;;;;;;;6.25;2.72;;;14.60;62.70;;;;;;5094993;28;20034;-62
2022/05/19 04:38:13;;;;;;;4.88;2.45;;;14.60;62.50;;;;;;5091552;28;20036;-62
2022/05/19 04:40:42;;;;;;;3.80;2.60;;;14.70;62.60;;;;;;5085746;28;20035;-62
2022/05/19 04:43:09;;;;;;;8.13;2.60;;;14.70;62.40;;;;;;5092591;28;20035;-63
2022/05/19 04:45:35;;;;;;;4.50;2.70;;;14.80;62.40;;;;;;5091442;28;20107;-62
2022/05/19 04:48:00;;;;;;;6.22;2.70;;;14.90;62.50;;;;;;5094203;28;20074;-62
2022/05/19 04:50:26;;;;;;;3.53;2.53;;;14.90;62.60;;;;;;5091760;28;20099;-63
2022/05/19 04:52:52;;;;;;;3.58;2.83;;;15.00;62.60;;;;;;5090738;28;20032;-64
2022/05/19 04:55:18;;;;;;;6.75;2.90;;;15.10;62.40;;;;;;5098578;28;20503;-64
2022/05/19 04:57:44;;;;;;;3.58;2.55;;;15.20;62.40;;;;;;5103589;28;20074;-62
2022/05/19 05:00:13;;;;;;;6.05;2.53;;;15.30;62.30;;;;;;5087809;28;20034;-62
2022/05/19 05:02:39;;;;;;;4.60;2.70;;;15.40;62.30;;;;;;5088400;28;20040;-62
2022/05/19 05:05:06;;;;;;;5.05;2.60;;;15.50;62.40;;;;;;5096272;28;20024;-62
2022/05/19 05:07:32;;;;;;;6.85;2.97;;;15.70;62.40;;;;;;5082992;28;20193;-62
2022/05/19 05:09:58;;;;;;;5.30;2.65;;;15.80;62.40;;;;;;5086102;28;20016;-62
2022/05/19 05:12:24;;;;;;;3.75;2.70;;;15.90;62.20;;;;;;5090896;28;20106;-62
2022/05/19 05:14:49;;;;;;;3.88;2.70;;;16.00;62.10;;;;;;5069687;28;20035;-62
2022/05/19 05:17:16;;;;;;;4.90;2.83;;;16.20;62.20;;;;;;5089848;28;20480;-62
2022/05/19 05:19:42;;;;;;;6.15;2.75;;;16.30;62.20;;;;;;5089859;28;20029;-62
2022/05/19 05:22:07;;;;;;;5.28;2.90;;;16.50;62.00;;;;;;5089206;28;20013;-62
2022/05/19 05:24:34;;;;;;;3.78;2.20;;;16.60;61.70;;;;;;5087868;28;20046;-62
2022/05/19 05:27:00;;;;;;;4.38;2.00;;;16.80;60.90;;;;;;4981176;28;20036;-63
2022/05/19 05:29:25;;;;;;;4.40;2.20;;;16.90;59.60;;;;;;5086470;28;20016;-63
2022/05/19 05:31:51;;;;;;;6.65;2.28;;;17.10;59.30;;;;;;5094813;28;20101;-62
2022/05/19 05:34:17;;;;;;;2.88;1.98;;;17.20;57.90;;;;;;5089463;28;20431;-62
2022/05/19 05:36:43;;;;;;;5.55;1.83;;;17.30;57.20;;;;;;5094461;28;20086;-62
2022/05/19 05:39:09;;;;;;;3.53;2.00;;;17.50;56.60;;;;;;5084222;28;20461;-62
2022/05/19 05:41:34;;;;;;;4.50;2.28;;;17.60;56.10;;;;;;5089795;28;20146;-62
2022/05/19 05:44:00;;;;;;;3.22;2.03;;;17.80;55.80;;;;;;5083555;28;20028;-62
2022/05/19 05:46:26;;;;;;;7.63;2.28;;;17.90;55.80;;;;;;5086886;28;20035;-63
2022/05/19 05:48:52;;;;;;;4.30;2.08;;;18.00;55.60;;;;;;5086530;28;20033;-63
2022/05/19 05:51:18;;;;;;;7.60;2.25;;;18.10;55.70;;;;;;5089108;28;20045;-64
2022/05/19 05:53:45;;;;;;;6.63;3.42;;;18.20;55.60;;;;;;5083708;28;20040;-62
2022/05/19 05:56:16;;;;;;;9.77;2.72;;;18.30;55.10;;;;;;5091438;28;20247;-62
2022/05/19 05:58:42;;;;;;;5.93;2.97;;;18.50;55.00;;;;;;5083631;28;20047;-62
2022/05/19 06:01:10;;;;;;;5.72;2.67;;;18.60;54.90;;;;;;5085651;28;20506;-64
2022/05/19 06:03:36;;;;;;;3.63;2.08;;;18.70;54.70;;;;;;5090098;28;20084;-62
2022/05/19 06:06:03;;;;;;;7.72;2.22;;;18.90;54.00;;;;;;5093135;28;20028;-62
2022/05/19 06:08:29;;;;;;;4.13;1.98;;;19.00;53.70;;;;;;5082190;28;20028;-63
2022/05/19 06:10:55;;;;;;;3.83;2.35;;;19.10;53.50;;;;;;5080344;28;20051;-60
2022/05/19 06:13:21;;;;;;;7.88;2.15;;;19.20;53.30;;;;;;5091345;28;20031;-62
2022/05/19 06:15:47;;;;;;;4.70;2.70;;;19.30;53.20;;;;;;5090184;28;20142;-62
2022/05/19 06:18:13;;;;;;;4.32;2.17;;;19.40;52.80;;;;;;5098763;28;20494;-62
2022/05/19 06:20:40;;;;;;;6.50;2.00;;;19.50;52.50;;;;;;5090447;28;20054;-62
2022/05/19 06:23:07;;;;;;;4.78;2.10;;;19.60;52.30;;;;;;5080724;28;20040;-62
2022/05/19 06:25:33;;;;;;;2.95;1.90;;;19.60;52.10;;;;;;5089146;28;20028;-61
2022/05/19 06:28:00;;;;;;;2.65;1.83;;;19.70;51.90;;;;;;5091247;28;20079;-63
2022/05/19 06:30:27;;;;;;;5.32;1.90;;;19.80;51.80;;;;;;5083716;28;20034;-61
2022/05/19 06:32:53;;;;;;;3.28;1.83;;;19.90;51.40;;;;;;5094212;28;20084;-62
2022/05/19 06:35:23;;;;;;;3.50;2.05;;;19.90;51.50;;;;;;5091529;28;20024;-62
2022/05/19 06:37:49;;;;;;;2.95;1.92;;;20.00;51.50;;;;;;5086869;28;20020;-62
2022/05/19 06:40:16;;;;;;;6.07;1.90;;;20.10;51.60;;;;;;5087273;28;20047;-61
2022/05/19 06:42:45;;;;;;;8.48;2.53;;;20.20;51.10;;;;;;5092703;28;20040;-61
2022/05/19 06:45:13;;;;;;;4.00;1.88;;;20.30;50.60;;;;;;5086156;28;20035;-62
2022/05/19 06:47:39;;;;;;;7.38;1.73;;;20.40;50.90;;;;;;5083734;28;20066;-62
2022/05/19 06:50:08;;;;;;;8.77;2.33;;;20.60;50.80;;;;;;5068637;28;20024;-61
2022/05/19 06:52:42;;;;;;;7.93;2.15;;;20.70;50.50;;;;;;5085334;28;20044;-62
2022/05/19 06:55:08;;;;;;;2.65;1.80;;;20.80;49.60;;;;;;5091020;28;20337;-63
2022/05/19 06:57:34;;;;;;;2.75;1.90;;;20.90;50.00;;;;;;5079296;28;20050;-62
2022/05/19 06:59:59;;;;;;;5.05;2.15;;;21.00;50.10;;;;;;5093569;28;20477;-62
2022/05/19 07:02:26;;;;;;;4.45;2.03;;;21.00;49.80;;;;;;5085966;28;20047;-61
2022/05/19 07:04:52;;;;;;;5.93;2.28;;;21.10;49.60;;;;;;5080788;28;20039;-61
2022/05/19 07:07:17;;;;;;;5.63;2.10;;;21.20;49.90;;;;;;5083723;28;20028;-61
2022/05/19 07:09:44;;;;;;;4.43;2.40;;;21.30;49.60;;;;;;5065908;28;20054;-62
2022/05/19 07:12:11;;;;;;;4.53;1.88;;;21.40;49.50;;;;;;5088167;28;20035;-63
2022/05/19 07:14:38;;;;;;;11.27;2.38;;;21.50;49.30;;;;;;5088793;28;20036;-61
2022/05/19 07:17:04;;;;;;;3.72;1.85;;;21.50;49.20;;;;;;5092295;28;20016;-61
2022/05/19 07:22:18;;;;;;;5.40;2.17;;;21.70;48.80;;;;;;5092485;28;20035;-62
2022/05/19 07:24:43;;;;;;;6.03;1.95;;;21.80;48.60;;;;;;5084977;28;20120;-62
2022/05/19 07:27:09;;;;;;;4.30;2.10;;;21.90;49.00;;;;;;5081611;28;20396;-61
2022/05/19 07:29:35;;;;;;;6.85;2.47;;;22.00;49.20;;;;;;5089548;28;20058;-61
2022/05/19 07:32:01;;;;;;;25.23;2.30;;;22.00;49.20;;;;;;5086584;28;20037;-63
2022/05/19 07:34:30;;;;;;;5.57;2.10;;;22.10;49.10;;;;;;5083182;28;20017;-61
2022/05/19 07:36:57;;;;;;;3.15;2.03;;;22.20;49.20;;;;;;5091954;28;20050;-62
2022/05/19 07:39:24;;;;;;;6.18;1.83;;;22.30;49.10;;;;;;5086083;28;20044;-62
2022/05/19 07:41:51;;;;;;;4.85;1.80;;;22.40;48.70;;;;;;5094864;28;20024;-62
2022/05/19 07:44:17;;;;;;;3.42;2.00;;;22.50;49.60;;;;;;5092948;28;20099;-62
2022/05/19 07:46:43;;;;;;;4.60;1.80;;;22.60;48.50;;;;;;5088302;28;20056;-63
2022/05/19 07:49:09;;;;;;;3.00;1.90;;;22.70;48.20;;;;;;5089484;28;20074;-62
2022/05/19 07:51:39;;;;;;;6.20;2.20;;;22.90;48.10;;;;;;5093660;28;20055;-62
2022/05/19 07:54:12;;;;;;;7.15;2.08;;;22.90;48.00;;;;;;5094150;28;20021;-62
2022/05/19 07:56:41;;;;;;;6.20;2.00;;;23.10;47.80;;;;;;5095897;28;20085;-63
2022/05/19 07:59:08;;;;;;;6.53;2.28;;;23.20;47.80;;;;;;5096348;28;20028;-62
2022/05/19 08:01:34;;;;;;;5.43;2.08;;;23.30;47.80;;;;;;5088442;28;20025;-63
2022/05/19 08:04:00;;;;;;;5.93;2.25;;;23.30;47.80;;;;;;5093459;28;20134;-63
2022/05/19 08:06:29;;;;;;;7.18;2.40;;;23.40;47.80;;;;;;5086559;28;20021;-62
2022/05/19 08:08:58;;;;;;;7.82;1.90;;;23.60;47.80;;;;;;5091767;28;20060;-63
2022/05/19 08:11:24;;;;;;;3.17;1.85;;;23.60;47.70;;;;;;5091476;28;20052;-63
2022/05/19 08:16:35;;;;;;;4.18;2.05;;;23.80;47.50;;;;;;5089308;28;20067;-62
2022/05/19 08:19:01;;;;;;;4.80;1.92;;;24.00;47.40;;;;;;5095238;28;20026;-62
2022/05/19 08:21:27;;;;;;;2.90;1.77;;;24.10;47.10;;;;;;5070585;28;20032;-62
2022/05/19 08:23:53;;;;;;;4.32;1.90;;;24.20;46.90;;;;;;5083358;28;20112;-62
2022/05/19 08:26:20;;;;;;;6.15;2.10;;;24.30;46.70;;;;;;5091607;28;20028;-61
2022/05/19 08:28:49;;;;;;;9.70;2.10;;;24.40;46.90;;;;;;5093042;28;20020;-62
2022/05/19 08:31:16;;;;;;;4.75;2.10;;;24.50;46.70;;;;;;5090537;28;20020;-62
2022/05/19 08:33:45;;;;;;;9.75;2.20;;;24.50;46.60;;;;;;5091375;28;20031;-63
2022/05/19 08:36:11;;;;;;;5.88;2.28;;;24.70;46.90;;;;;;5091479;28;20088;-61
2022/05/19 08:38:38;;;;;;;3.63;2.10;;;24.70;46.50;;;;;;5090216;28;20074;-62
2022/05/19 08:41:27;;;;;;;7.20;1.95;;;24.80;45.90;;;;;;5092250;28;20024;-62
2022/05/19 08:44:11;;;;;;;4.93;2.10;;;25.00;46.20;;;;;;5086512;28;20021;-62
2022/05/19 08:46:39;;;;;;;4.72;1.90;;;25.00;46.20;;;;;;5090372;28;20052;-63
2022/05/19 08:49:12;;;;;;;4.07;1.90;;;25.20;46.10;;;;;;5092526;28;20400;-62
2022/05/19 08:51:59;;;;;;;5.10;2.10;;;25.30;46.30;;;;;;5091718;28;20053;-62
2022/05/19 08:54:25;;;;;;;3.17;2.00;;;25.40;46.40;;;;;;5085826;28;20024;-64
2022/05/19 08:57:04;;;;;;;3.40;2.10;;;25.50;46.30;;;;;;5088379;28;20031;-62
2022/05/19 08:59:39;;;;;;;4.38;1.70;;;25.60;45.90;;;;;;5080885;28;20021;-62
2022/05/19 09:02:30;;;;;;;4.35;2.33;;;25.70;46.20;;;;;;5092160;28;20063;-62
2022/05/19 09:05:11;;;;;;;5.80;2.67;;;25.80;46.00;;;;;;5099675;28;20028;-62
2022/05/19 09:07:56;;;;;;;4.40;2.22;;;25.90;46.30;;;;;;5082069;28;20020;-63
2022/05/19 09:10:34;;;;;;;21.98;2.42;;;26.10;46.30;;;;;;5080337;28;20127;-62
2022/05/19 09:13:30;;;;;;;6.35;2.33;;;26.20;46.00;;;;;;5084834;28;20088;-62
2022/05/19 09:15:56;;;;;;;3.75;2.08;;;26.30;45.50;;;;;;5088165;28;20020;-62
2022/05/19 09:18:31;;;;;;;4.32;2.38;;;26.40;45.80;;;;;;5084951;28;20055;-62
2022/05/19 09:20:58;;;;;;;5.65;2.47;;;26.50;44.80;;;;;;5090527;28;20032;-62
2022/05/19 09:23:24;;;;;;;6.57;2.80;;;26.60;45.20;;;;;;5080402;28;20025;-62
2022/05/19 09:25:59;;;;;;;8.93;2.60;;;26.60;45.20;;;;;;5089336;28;20024;-63
2022/05/19 09:28:26;;;;;;;7.57;2.72;;;26.70;45.40;;;;;;5080181;28;20017;-62
2022/05/19 09:30:55;;;;;;;9.02;3.00;;;26.80;45.70;;;;;;5086400;28;20088;-63
2022/05/19 09:33:34;;;;;;;3.75;2.53;;;26.90;45.60;;;;;;5082911;28;20064;-62
2022/05/19 09:36:01;;;;;;;10.23;2.70;;;27.00;45.60;;;;;;5087462;28;20481;-62
2022/05/19 09:38:43;;;;;;;6.03;3.28;;;27.10;45.70;;;;;;5086223;28;20031;-62
2022/05/19 09:41:41;;;;;;;28.20;3.35;;;27.20;45.40;;;;;;5086726;28;20028;-63
2022/05/19 09:44:13;;;;;;;8.75;3.25;;;27.30;45.40;;;;;;5069058;28;20052;-62
2022/05/19 09:46:47;;;;;;;6.95;2.25;;;27.40;44.80;;;;;;5099162;28;20031;-62
2022/05/19 09:49:25;;;;;;;8.38;2.78;;;27.50;44.30;;;;;;5085006;28;20017;-62
2022/05/19 09:51:52;;;;;;;4.97;2.35;;;27.60;44.30;;;;;;5082043;28;20052;-63
2022/05/19 09:54:18;;;;;;;3.63;2.55;;;27.70;44.40;;;;;;5093094;28;20480;-63
2022/05/19 09:56:59;;;;;;;4.22;2.67;;;27.70;44.60;;;;;;5087811;28;20021;-62
2022/05/19 09:59:36;;;;;;;5.93;2.50;;;27.70;44.70;;;;;;5084291;28;20115;-63
2022/05/19 10:02:26;;;;;;;6.70;2.58;;;27.80;45.00;;;;;;5089367;28;20084;-63
2022/05/19 10:04:55;;;;;;;9.95;2.60;;;27.90;45.50;;;;;;5078203;28;20055;-62
2022/05/19 10:07:23;;;;;;;8.57;2.67;;;28.00;45.30;;;;;;5091176;28;20024;-62
2022/05/19 10:09:50;;;;;;;4.22;2.45;;;28.10;45.40;;;;;;5085438;28;20028;-62
2022/05/19 10:12:29;;;;;;;4.15;2.50;;;28.20;45.50;;;;;;5085918;28;20033;-62
2022/05/19 10:15:10;;;;;;;5.30;2.78;;;28.40;44.50;;;;;;5091640;28;20020;-63
2022/05/19 10:18:20;;;;;;;9.07;2.70;;;28.50;45.40;;;;;;5083512;28;20028;-62
2022/05/19 10:21:08;;;;;;;9.82;2.70;;;28.60;45.00;;;;;;5019139;28;20041;-62
2022/05/19 10:23:46;;;;;;;4.20;2.47;;;28.80;44.70;;;;;;5026960;28;20029;-63
2022/05/19 10:26:29;;;;;;;3.92;2.45;;;28.90;45.40;;;;;;5030474;28;20030;-63
2022/05/19 10:32:35;;;;;;;4.78;2.22;;;29.20;44.80;;;;;;5016720;28;20056;-62
2022/05/19 10:35:38;;;;;;;7.10;2.63;;;29.40;44.80;;;;;;5029246;28;20033;-62
2022/05/19 10:38:37;;;;;;;4.55;2.50;;;29.50;45.10;;;;;;5026039;28;20079;-62
2022/05/19 10:41:42;;;;;;;3.72;2.30;;;29.70;44.10;;;;;;5021851;28;20034;-62
2022/05/19 10:44:22;;;;;;;4.72;2.67;;;29.80;44.50;;;;;;4987029;28;20055;-62
2022/05/19 10:47:02;;;;;;;5.70;1.92;;;29.90;44.10;;;;;;4985628;28;20038;-62
2022/05/19 10:49:45;;;;;;;5.13;2.22;;;30.10;44.40;;;;;;4984997;28;20051;-63
2022/05/19 10:52:31;;;;;;;5.30;2.23;;;30.20;44.00;;;;;;4979274;28;20116;-62
2022/05/19 10:55:17;;;;;;;3.78;2.15;;;30.30;43.80;;;;;;4978859;28;20315;-63
2022/05/19 10:57:42;;;;;;;6.20;2.60;;;30.40;43.90;;;;;;4994644;28;20041;-61
2022/05/19 11:00:18;;;;;;;5.45;2.38;;;30.50;43.80;;;;;;5009059;28;20049;-62
2022/05/19 11:03:11;;;;;;;4.40;2.13;;;30.60;43.70;;;;;;5004434;28;20574;-63
2022/05/19 11:06:25;;;;;;;6.85;2.30;;;30.80;43.50;;;;;;5008543;28;20041;-62
2022/05/19 11:09:03;;;;;;;6.63;2.50;;;30.90;43.30;;;;;;5001430;28;20073;-62
2022/05/19 11:11:48;;;;;;;4.53;2.40;;;31.00;42.50;;;;;;5002766;28;20038;-62
2022/05/19 11:14:41;;;;;;;5.43;2.05;;;31.10;42.40;;;;;;5012762;28;20038;-62
2022/05/19 11:17:24;;;;;;;3.20;1.85;;;31.20;42.10;;;;;;5013819;28;20034;-62
2022/05/19 11:20:05;;;;;;;8.80;2.47;;;31.40;42.40;;;;;;5009683;28;20030;-62
2022/05/19 11:22:36;;;;;;;6.22;2.00;;;31.40;43.00;;;;;;5068791;28;20021;-63
2022/05/19 11:28:34;;;;;;;3.45;2.00;;;31.70;42.00;;;;;;5068412;28;20104;-63
2022/05/19 11:31:09;;;;;;;6.75;2.17;;;31.90;41.60;;;;;;5068341;28;20036;-63
2022/05/19 11:33:39;;;;;;;4.50;1.98;;;31.90;41.70;;;;;;5069007;28;20041;-63
2022/05/19 11:36:30;;;;;;;4.30;1.98;;;32.10;41.20;;;;;;5065836;28;20031;-62
2022/05/19 11:39:11;;;;;;;4.15;2.05;;;32.10;40.50;;;;;;5070408;28;20028;-63
2022/05/19 11:41:38;;;;;;;3.03;1.90;;;32.20;40.90;;;;;;5073256;28;20124;-62
2022/05/19 11:44:11;;;;;;;5.97;2.17;;;32.30;41.40;;;;;;5073510;28;20444;-62
2022/05/19 11:47:02;;;;;;;5.87;2.10;;;32.30;41.10;;;;;;5063963;28;20021;-63
2022/05/19 11:55:45;;;;;;;7.53;1.95;;;32.60;40.40;;;;;;5089273;28;20043;-63
2022/05/19 11:58:26;;;;;;;3.92;2.22;;;32.70;40.70;;;;;;5089074;28;20186;-63
2022/05/19 12:01:04;;;;;;;7.03;2.05;;;32.80;39.60;;;;;;5088989;28;20029;-62
2022/05/19 12:04:03;;;;;;;5.25;1.85;;;32.80;40.00;;;;;;5090325;28;21163;-62
2022/05/19 12:06:33;;;;;;;3.05;1.80;;;32.90;40.20;;;;;;5073249;28;20028;-64
2022/05/19 12:09:41;;;;;;;3.35;1.70;;;32.90;40.10;;;;;;5087398;28;20024;-62
2022/05/19 12:12:32;;;;;;;4.53;1.88;;;33.00;39.00;;;;;;5083985;28;20025;-62
2022/05/19 12:15:23;;;;;;;5.57;1.83;;;33.00;39.40;;;;;;5094497;28;20054;-62
2022/05/19 12:17:58;;;;;;;3.45;2.03;;;33.10;39.70;;;;;;5090478;28;20043;-62
2022/05/19 12:20:45;;;;;;;3.38;1.80;;;33.20;40.50;;;;;;5087405;28;20027;-62
2022/05/19 12:23:18;;;;;;;4.88;1.65;;;33.30;40.00;;;;;;5092253;28;20017;-62
2022/05/19 12:25:51;;;;;;;3.78;1.70;;;33.40;40.00;;;;;;5090564;28;20056;-62
2022/05/19 12:28:19;;;;;;;5.10;2.38;;;33.50;39.70;;;;;;5083433;28;20033;-61
2022/05/19 12:34:02;;;;;;;5.50;1.80;;;33.70;38.60;;;;;;5084927;28;20111;-64
2022/05/19 12:36:30;;;;;;;3.55;1.50;;;33.80;38.70;;;;;;5080997;28;20107;-64
2022/05/19 12:39:13;;;;;;;4.68;2.13;;;33.90;37.90;;;;;;5090554;28;20035;-62
2022/05/19 12:41:50;;;;;;;6.53;1.98;;;34.00;37.80;;;;;;5089137;28;20096;-63
2022/05/19 12:44:40;;;;;;;12.80;1.70;;;34.00;37.40;;;;;;5084583;28;20017;-62
2022/05/19 12:47:33;;;;;;;4.07;1.67;;;34.10;36.70;;;;;;5091239;28;20025;-61
2022/05/19 12:50:08;;;;;;;3.08;1.60;;;34.10;36.70;;;;;;5092784;28;20115;-62
2022/05/19 12:53:03;;;;;;;4.45;2.38;;;34.10;36.80;;;;;;5089453;28;20438;-62
2022/05/19 12:55:42;;;;;;;4.78;2.05;;;34.20;36.70;;;;;;5091386;28;20055;-63
2022/05/19 12:58:46;;;;;;;3.55;1.65;;;34.20;37.20;;;;;;5089940;28;20044;-62
2022/05/19 13:01:16;;;;;;;;;;;34.20;37.00;;;;;;5087656;28;20032;-63
2022/05/19 13:03:44;;;;;;;2.38;1.33;;;34.30;37.60;;;;;;5090256;28;19916;-63
2022/05/19 13:06:12;;;;;;;5.00;1.70;;;34.30;36.20;;;;;;5093164;28;20088;-62
2022/05/19 13:08:49;;;;;;;2.78;1.65;;;34.20;36.20;;;;;;5087519;28;20028;-62
2022/05/19 13:11:19;;;;;;;4.88;1.48;;;34.20;36.60;;;;;;5089097;28;20100;-62
2022/05/19 13:13:54;;;;;;;4.35;1.73;;;34.20;36.80;;;;;;5089739;28;20439;-63
2022/05/19 13:16:37;;;;;;;2.20;1.40;;;34.30;36.90;;;;;;5097122;28;20068;-61
2022/05/19 13:19:06;;;;;;;9.45;1.50;;;34.40;36.50;;;;;;5087499;28;20032;-61
2022/05/19 13:21:37;;;;;;;5.15;1.33;;;34.50;35.90;;;;;;5088502;28;20044;-62
2022/05/19 13:24:09;;;;;;;2.45;1.67;;;34.60;35.50;;;;;;5090943;28;20020;-61
2022/05/19 13:26:40;;;;;;;2.63;1.70;;;34.60;35.10;;;;;;5085857;28;20108;-62
2022/05/19 13:32:11;;;;;;;4.25;1.58;;;34.70;35.90;;;;;;5087977;28;20039;-62
2022/05/19 13:34:45;;;;;;;3.25;1.52;;;34.80;35.30;;;;;;5090602;28;20056;-62
2022/05/19 13:37:12;;;;;;;2.63;1.95;;;34.90;34.70;;;;;;5085896;28;20031;-62